createdAt,value
2019-03-20T00:01:44.341Z,3.20
2019-03-20T00:06:50.884Z,2.80
2019-03-20T00:09:43.448Z,2.80
2019-03-20T00:14:41.170Z,2.80
2019-03-20T00:17:10.277Z,2.90
2019-03-20T00:19:39.356Z,2.80
2019-03-20T00:24:36.988Z,2.80
2019-03-20T00:29:57.958Z,2.60
2019-03-20T00:35:00.762Z,2.70
2019-03-20T00:37:27.584Z,2.60
2019-03-20T00:39:56.822Z,4.30
2019-03-20T00:42:35.435Z,2.50
2019-03-20T00:45:03.915Z,2.50
2019-03-20T00:47:33.457Z,2.50
2019-03-20T00:50:02.591Z,2.50
2019-03-20T00:55:00.551Z,2.40
2019-03-20T00:57:29.557Z,2.40
2019-03-20T00:59:58.569Z,2.40
2019-03-20T01:02:27.632Z,2.50
2019-03-20T01:04:56.841Z,2.50
2019-03-20T01:07:25.965Z,2.60
2019-03-20T01:09:55.204Z,2.50
2019-03-20T01:12:24.520Z,2.50
2019-03-20T01:17:22.442Z,2.30
2019-03-20T01:19:51.594Z,2.30
2019-03-20T01:22:20.687Z,2.30
2019-03-20T01:24:49.739Z,2.30
2019-03-20T01:27:19.114Z,2.30
2019-03-20T01:29:48.094Z,2.30
2019-03-20T01:32:20.470Z,2.20
2019-03-20T01:37:25.933Z,2.20
2019-03-20T01:39:55.269Z,2.20
2019-03-20T01:45:10.397Z,2.10
2019-03-20T01:47:39.601Z,2.10
2019-03-20T01:50:08.899Z,1.90
2019-03-20T01:55:07.271Z,1.80
2019-03-20T01:57:44.184Z,1.80
2019-03-20T02:00:22.101Z,1.70
2019-03-20T02:05:35.673Z,1.60
2019-03-20T02:08:03.214Z,1.50
2019-03-20T02:10:32.313Z,1.60
2019-03-20T02:13:02.065Z,1.50
2019-03-20T02:18:01.963Z,1.60
2019-03-20T02:20:41.675Z,1.60
2019-03-20T02:23:10.877Z,1.70
2019-03-20T02:25:51.538Z,1.70
2019-03-20T02:28:30.776Z,1.70
2019-03-20T02:31:00.617Z,1.60
2019-03-20T02:33:33.313Z,1.60
2019-03-20T02:36:02.192Z,1.60
2019-03-20T02:41:00.359Z,1.50
2019-03-20T02:43:39.716Z,1.60
2019-03-20T02:46:17.067Z,1.60
2019-03-20T02:51:26.821Z,1.60
2019-03-20T02:59:08.307Z,1.20
2019-03-20T03:04:09.325Z,1.20
2019-03-20T03:06:38.137Z,1.10
2019-03-20T03:09:10.131Z,1.20
2019-03-20T03:11:38.817Z,1.10
2019-03-20T03:14:08.190Z,1.10
2019-03-20T03:16:45.061Z,1.00
2019-03-20T03:19:16.472Z,1.10
2019-03-20T03:24:22.764Z,0.90
2019-03-20T03:26:52.858Z,0.90
2019-03-20T03:29:46.022Z,0.90
2019-03-20T03:34:45.575Z,0.90
2019-03-20T03:37:17.205Z,0.80
2019-03-20T03:42:18.986Z,0.90
2019-03-20T03:44:47.899Z,0.90
2019-03-20T03:55:30.362Z,0.90
2019-03-20T03:58:12.072Z,0.90
2019-03-20T04:03:26.149Z,0.80
2019-03-20T04:06:00.634Z,0.70
2019-03-20T04:08:30.804Z,0.70
2019-03-20T04:16:05.786Z,0.80
2019-03-20T04:23:44.760Z,0.70
2019-03-20T04:26:55.341Z,0.70
2019-03-20T04:29:43.874Z,0.50
2019-03-20T04:32:15.133Z,0.40
2019-03-20T04:34:44.385Z,0.40
2019-03-20T04:39:48.606Z,0.30
2019-03-20T04:42:18.039Z,0.30
2019-03-20T04:44:47.438Z,0.30
2019-03-20T04:47:19.099Z,0.30
2019-03-20T04:50:00.723Z,0.40
2019-03-20T04:52:34.604Z,0.30
2019-03-20T04:55:04.395Z,0.30
2019-03-20T05:00:03.892Z,0.30
2019-03-20T05:02:34.751Z,0.20
2019-03-20T05:07:38.202Z,0.10
2019-03-20T05:10:08.805Z,0.10
2019-03-20T05:12:37.935Z,0.10
2019-03-20T05:15:13.690Z,0.00
2019-03-20T05:20:16.392Z,0.10
2019-03-20T05:25:14.156Z,0.00
2019-03-20T05:27:46.300Z,-0.10
2019-03-20T05:30:15.545Z,-0.10
2019-03-20T05:32:59.006Z,0.00
2019-03-20T05:35:41.933Z,0.00
2019-03-20T05:38:28.380Z,-0.10
2019-03-20T05:44:00.495Z,-0.20
2019-03-20T05:54:26.909Z,0.00
2019-03-20T06:02:38.132Z,0.20
2019-03-20T06:05:07.641Z,0.30
2019-03-20T06:07:36.972Z,0.30
2019-03-20T06:10:24.644Z,0.40
2019-03-20T06:13:03.046Z,0.30
2019-03-20T06:18:03.572Z,0.40
2019-03-20T06:20:33.827Z,0.50
2019-03-20T06:23:12.014Z,0.60
2019-03-20T06:25:41.241Z,0.80
2019-03-20T06:30:39.138Z,1.00
2019-03-20T06:35:47.357Z,1.10
2019-03-20T06:38:16.552Z,1.20
2019-03-20T06:40:45.465Z,1.20
2019-03-20T06:43:14.557Z,1.20
2019-03-20T06:45:43.650Z,1.50
2019-03-20T06:48:12.811Z,1.60
2019-03-20T06:50:41.984Z,1.60
2019-03-20T06:53:10.764Z,1.80
2019-03-20T06:58:08.668Z,2.00
2019-03-20T07:01:06.812Z,2.30
2019-03-20T07:03:58.528Z,2.40
2019-03-20T07:09:24.222Z,2.80
2019-03-20T07:11:53.318Z,3.00
2019-03-20T07:14:22.553Z,3.30
2019-03-20T07:16:51.682Z,3.70
2019-03-20T07:19:24.563Z,4.10
2019-03-20T07:24:22.300Z,4.60
2019-03-20T07:26:53.868Z,4.80
2019-03-20T07:29:23.054Z,5.00
2019-03-20T07:31:52.839Z,5.20
2019-03-20T07:39:19.558Z,6.10
2019-03-20T07:49:20.358Z,8.70
2019-03-20T07:51:50.363Z,7.40
2019-03-20T07:54:22.897Z,7.50
2019-03-20T07:56:52.400Z,7.60
2019-03-20T07:59:21.564Z,7.70
2019-03-20T08:01:50.795Z,8.10
2019-03-20T08:04:20.365Z,8.40
2019-03-20T08:09:18.035Z,8.90
2019-03-20T08:11:48.281Z,8.90
2019-03-20T08:14:17.852Z,9.00
2019-03-20T08:16:47.370Z,9.10
2019-03-20T08:19:16.591Z,9.10
2019-03-20T08:21:45.969Z,9.30
2019-03-20T08:24:15.146Z,9.30
2019-03-20T08:26:44.220Z,9.50
2019-03-20T08:31:42.100Z,9.60
2019-03-20T08:34:11.456Z,9.80
2019-03-20T08:36:40.547Z,10.00
2019-03-20T08:39:10.023Z,10.10
2019-03-20T08:41:39.845Z,10.20
2019-03-20T08:44:12.496Z,10.30
2019-03-20T08:49:10.809Z,10.50
2019-03-20T08:54:11.417Z,10.80
2019-03-20T08:56:42.093Z,10.80
2019-03-20T08:59:11.552Z,10.90
2019-03-20T09:01:43.443Z,11.30
2019-03-20T09:04:13.156Z,11.50
2019-03-20T09:09:14.461Z,11.80
2019-03-20T09:11:44.345Z,12.00
2019-03-20T09:19:10.735Z,12.40
2019-03-20T09:21:39.982Z,12.40
2019-03-20T09:26:39.916Z,12.60
2019-03-20T09:29:18.246Z,12.70
2019-03-20T09:31:39.704Z,12.70
2019-03-20T09:34:08.563Z,12.80
2019-03-20T09:39:08.903Z,12.90
2019-03-20T09:41:38.174Z,13.00
2019-03-20T09:44:08.590Z,13.30
2019-03-20T09:46:37.640Z,13.20
2019-03-20T09:49:06.711Z,13.10
2019-03-20T09:51:35.629Z,13.30
2019-03-20T09:54:04.686Z,13.40
2019-03-20T09:56:34.051Z,13.30
2019-03-20T10:01:31.621Z,13.40
2019-03-20T10:04:00.609Z,12.80
2019-03-20T10:09:01.861Z,13.00
2019-03-20T10:11:30.354Z,13.10
2019-03-20T10:13:59.415Z,13.30
2019-03-20T10:16:28.527Z,13.50
2019-03-20T10:18:57.479Z,14.00
2019-03-20T10:23:55.341Z,13.80
2019-03-20T10:26:26.959Z,13.60
2019-03-20T10:28:56.219Z,13.50
2019-03-20T10:31:25.358Z,13.30
2019-03-20T10:36:22.874Z,13.50
2019-03-20T10:38:51.992Z,13.80
2019-03-20T10:41:21.061Z,13.50
2019-03-20T10:46:20.348Z,13.20
2019-03-20T10:48:49.438Z,13.10
2019-03-20T10:51:18.445Z,12.90
2019-03-20T10:53:47.655Z,12.60
2019-03-20T10:56:16.655Z,12.50
2019-03-20T10:58:45.649Z,12.60
2019-03-20T11:01:14.721Z,12.90
2019-03-20T11:03:43.781Z,12.90
2019-03-20T11:08:41.373Z,13.40
2019-03-20T11:11:10.912Z,13.60
2019-03-20T11:13:39.790Z,13.80
2019-03-20T11:16:08.673Z,14.00
2019-03-20T11:18:37.927Z,14.10
2019-03-20T11:21:07.141Z,14.00
2019-03-20T11:23:36.471Z,14.00
2019-03-20T11:26:05.494Z,14.20
2019-03-20T11:28:34.320Z,13.70
2019-03-20T11:31:03.562Z,13.50
2019-03-20T11:33:32.730Z,13.40
2019-03-20T11:36:01.907Z,13.00
2019-03-20T11:38:30.893Z,12.60
2019-03-20T11:40:59.912Z,12.30
2019-03-20T11:43:29.171Z,12.00
2019-03-20T11:45:58.685Z,12.00
2019-03-20T11:50:56.436Z,12.20
2019-03-20T11:55:54.136Z,12.40
2019-03-20T11:58:23.185Z,12.60
2019-03-20T12:00:53.742Z,12.70
2019-03-20T12:03:25.172Z,12.70
2019-03-20T12:05:54.254Z,12.80
2019-03-20T12:08:23.076Z,12.90
2019-03-20T12:13:20.929Z,13.10
2019-03-20T12:15:50.124Z,13.30
2019-03-20T12:18:19.087Z,13.50
2019-03-20T12:20:48.171Z,13.50
2019-03-20T12:23:17.101Z,13.60
2019-03-20T12:25:46.253Z,13.50
2019-03-20T12:28:15.384Z,13.20
2019-03-20T12:33:13.288Z,13.00
2019-03-20T12:35:42.530Z,13.00
2019-03-20T12:40:43.547Z,13.20
2019-03-20T12:43:12.811Z,13.10
2019-03-20T12:45:42.025Z,13.00
2019-03-20T12:48:11.136Z,12.80
2019-03-20T12:50:40.263Z,12.50
2019-03-20T12:55:38.959Z,12.30
2019-03-20T12:58:08.256Z,12.30
2019-03-20T13:00:37.325Z,12.30
2019-03-20T13:03:06.649Z,11.90
2019-03-20T13:05:36.477Z,11.80
2019-03-20T13:08:06.348Z,11.70
2019-03-20T13:10:35.863Z,11.90
2019-03-20T13:13:06.577Z,12.00
2019-03-20T13:18:06.610Z,12.00
2019-03-20T13:20:35.875Z,12.20
2019-03-20T13:23:07.739Z,12.20
2019-03-20T13:25:36.859Z,12.20
2019-03-20T13:28:05.750Z,12.30
2019-03-20T13:30:37.779Z,12.30
2019-03-20T13:33:07.189Z,12.30
2019-03-20T13:35:36.516Z,12.30
2019-03-20T13:40:34.465Z,12.10
2019-03-20T13:43:03.653Z,12.10
2019-03-20T13:45:51.476Z,12.20
2019-03-20T13:48:20.970Z,12.00
2019-03-20T13:50:50.207Z,11.50
2019-03-20T13:53:19.310Z,11.40
2019-03-20T13:55:48.655Z,11.30
2019-03-20T14:00:46.220Z,11.70
2019-03-20T14:05:44.208Z,11.70
2019-03-20T14:08:13.188Z,11.70
2019-03-20T14:10:50.323Z,11.80
2019-03-20T14:13:13.148Z,11.90
2019-03-20T14:18:11.125Z,11.90
2019-03-20T14:20:40.159Z,11.90
2019-03-20T14:23:09.267Z,11.90
2019-03-20T14:28:07.241Z,11.70
2019-03-20T14:30:36.349Z,11.70
2019-03-20T14:33:05.198Z,11.90
2019-03-20T14:35:34.938Z,11.90
2019-03-20T14:38:04.124Z,11.60
2019-03-20T14:40:36.897Z,11.50
2019-03-20T14:43:04.320Z,11.40
2019-03-20T14:48:03.765Z,11.60
2019-03-20T14:50:33.191Z,11.80
2019-03-20T14:53:02.566Z,11.80
2019-03-20T15:00:29.019Z,11.70
2019-03-20T15:02:58.225Z,11.60
2019-03-20T15:05:27.467Z,11.40
2019-03-20T15:12:54.097Z,11.40
2019-03-20T15:15:29.630Z,11.50
2019-03-20T15:17:58.524Z,11.50
2019-03-20T15:20:27.365Z,11.40
2019-03-20T15:22:56.211Z,11.40
2019-03-20T15:25:26.094Z,11.40
2019-03-20T15:27:55.249Z,11.40
2019-03-20T15:32:52.917Z,11.30
2019-03-20T15:35:21.882Z,11.30
2019-03-20T15:37:51.056Z,11.30
2019-03-20T15:40:20.266Z,11.10
2019-03-20T15:42:49.460Z,11.20
2019-03-20T15:47:55.863Z,10.80
2019-03-20T15:50:24.935Z,10.80
2019-03-20T15:57:54.025Z,10.70
2019-03-20T16:00:22.984Z,10.70
2019-03-20T16:02:53.460Z,10.70
2019-03-20T16:05:22.588Z,10.40
2019-03-20T16:07:51.697Z,10.30
2019-03-20T16:10:21.533Z,10.40
2019-03-20T16:12:50.593Z,10.40
2019-03-20T16:17:48.711Z,10.50
2019-03-20T16:20:17.652Z,10.40
2019-03-20T16:22:47.074Z,12.10
2019-03-20T16:25:16.569Z,10.40
2019-03-20T16:27:47.056Z,10.30
2019-03-20T16:30:19.107Z,10.40
2019-03-20T16:32:48.213Z,10.30
2019-03-20T16:35:17.477Z,10.30
2019-03-20T16:40:17.245Z,10.30
2019-03-20T16:42:46.542Z,10.30
2019-03-20T16:45:17.857Z,10.40
2019-03-20T16:47:47.006Z,10.40
2019-03-20T16:50:16.685Z,10.40
2019-03-20T16:52:45.886Z,10.10
2019-03-20T16:55:15.281Z,9.50
2019-03-20T16:57:44.888Z,10.00
2019-03-20T17:02:48.119Z,9.90
2019-03-20T17:05:17.384Z,9.90
2019-03-20T17:07:46.275Z,9.90
2019-03-20T17:10:23.798Z,10.00
2019-03-20T17:12:52.895Z,9.90
2019-03-20T17:15:23.321Z,9.90
2019-03-20T17:20:21.278Z,9.80
2019-03-20T17:25:19.278Z,9.70
2019-03-20T17:27:48.889Z,9.70
2019-03-20T17:30:23.341Z,9.60
2019-03-20T17:35:20.883Z,9.60
2019-03-20T17:37:51.437Z,9.50
2019-03-20T17:40:21.216Z,9.50
2019-03-20T17:45:19.909Z,9.20
2019-03-20T17:47:49.310Z,9.10
2019-03-20T17:52:53.398Z,9.00
2019-03-20T17:55:28.436Z,9.00
2019-03-20T17:57:57.559Z,8.90
2019-03-20T18:03:13.287Z,8.70
2019-03-20T18:05:42.364Z,8.60
2019-03-20T18:10:40.482Z,8.40
2019-03-20T18:13:10.107Z,8.40
2019-03-20T18:15:39.510Z,8.40
2019-03-20T18:18:08.800Z,8.40
2019-03-20T18:20:38.213Z,8.40
2019-03-20T18:23:08.061Z,8.20
2019-03-20T18:25:37.438Z,8.30
2019-03-20T18:28:06.563Z,8.30
2019-03-20T18:33:09.427Z,8.00
2019-03-20T18:35:45.035Z,7.90
2019-03-20T18:38:14.055Z,7.90
2019-03-20T18:40:44.620Z,7.80
2019-03-20T18:43:13.777Z,7.80
2019-03-20T18:48:11.609Z,7.70
2019-03-20T19:00:45.438Z,7.40
2019-03-20T19:03:19.629Z,7.20
2019-03-20T19:06:01.149Z,7.20
2019-03-20T19:08:30.586Z,7.00
2019-03-20T19:10:59.565Z,7.00
2019-03-20T19:13:28.636Z,6.80
2019-03-20T19:15:57.736Z,6.80
2019-03-20T19:20:56.012Z,6.70
2019-03-20T19:23:25.175Z,6.60
2019-03-20T19:25:55.330Z,6.70
2019-03-20T19:28:24.578Z,6.70
2019-03-20T19:30:53.767Z,6.70
2019-03-20T19:33:22.808Z,6.60
2019-03-20T19:35:51.875Z,6.50
2019-03-20T19:38:20.766Z,6.50
2019-03-20T19:43:18.419Z,6.50
2019-03-20T19:45:52.940Z,6.40
2019-03-20T19:50:50.590Z,6.30
2019-03-20T19:55:53.559Z,5.70
2019-03-20T19:58:22.930Z,5.30
2019-03-20T20:00:52.721Z,5.10
2019-03-20T20:05:49.758Z,4.70
2019-03-20T20:08:18.404Z,4.60
2019-03-20T20:10:47.100Z,4.60
2019-03-20T20:13:15.850Z,4.60
2019-03-20T20:15:44.510Z,4.50
2019-03-20T20:18:13.128Z,4.50
2019-03-20T20:20:41.851Z,4.50
2019-03-20T20:23:10.540Z,4.40
2019-03-20T20:28:07.488Z,4.80
2019-03-20T20:30:36.406Z,4.70
2019-03-20T20:33:05.166Z,5.00
2019-03-20T20:35:33.875Z,5.00
2019-03-20T20:38:02.818Z,5.00
2019-03-20T20:40:31.482Z,4.90
2019-03-20T20:43:00.355Z,4.60
2019-03-20T20:47:57.386Z,4.50
2019-03-20T20:50:26.058Z,4.40
2019-03-20T20:52:54.764Z,4.20
2019-03-20T20:55:23.693Z,4.10
2019-03-20T20:57:52.542Z,4.10
2019-03-20T21:00:21.335Z,4.10
2019-03-20T21:02:50.136Z,4.00
2019-03-20T21:05:18.887Z,3.80
2019-03-20T21:10:16.105Z,3.80
2019-03-20T21:12:55.660Z,3.80
2019-03-20T21:15:33.496Z,3.70
2019-03-20T21:18:40.514Z,3.60
2019-03-20T21:21:09.731Z,3.60
2019-03-20T21:24:14.612Z,3.30
2019-03-20T21:27:24.571Z,3.20
2019-03-20T21:30:33.650Z,3.00
2019-03-20T21:33:03.486Z,3.00
2019-03-20T21:36:41.164Z,3.10
2019-03-20T21:39:10.356Z,3.00
2019-03-20T21:42:11.799Z,3.10
2019-03-20T21:47:32.034Z,3.00
2019-03-20T21:50:16.529Z,3.00
2019-03-20T21:52:45.736Z,3.00
2019-03-20T21:55:42.058Z,3.10
2019-03-20T21:58:19.281Z,2.90
2019-03-20T22:01:47.262Z,2.90
2019-03-20T22:04:16.438Z,2.80
2019-03-20T22:07:23.287Z,2.70
2019-03-20T22:10:42.033Z,2.60
2019-03-20T22:13:27.231Z,2.60
2019-03-20T22:16:33.077Z,2.50
2019-03-20T22:19:41.500Z,2.50
2019-03-20T22:22:51.351Z,2.50
2019-03-20T22:25:49.349Z,2.30
2019-03-20T22:29:14.796Z,2.30
2019-03-20T22:31:56.304Z,2.30
2019-03-20T22:35:11.964Z,2.30
2019-03-20T22:37:41.386Z,2.40
2019-03-20T22:40:53.469Z,2.40
2019-03-20T22:43:34.335Z,2.30
2019-03-20T22:46:59.247Z,2.20
2019-03-20T22:50:20.890Z,2.00
2019-03-20T22:53:32.391Z,2.00
2019-03-20T22:56:33.752Z,2.00
2019-03-20T22:59:03.116Z,2.10
2019-03-20T23:04:13.942Z,2.10
2019-03-20T23:06:43.367Z,2.10
2019-03-20T23:09:12.794Z,2.10
2019-03-20T23:11:42.021Z,2.20
2019-03-20T23:14:13.021Z,2.20
2019-03-20T23:16:42.261Z,2.20
2019-03-20T23:19:11.643Z,2.20
2019-03-20T23:24:09.705Z,2.10
2019-03-20T23:26:39.059Z,2.10
2019-03-20T23:29:08.363Z,2.40
2019-03-20T23:31:37.763Z,2.10
2019-03-20T23:34:07.076Z,2.10
2019-03-20T23:36:36.324Z,2.10
2019-03-20T23:39:08.453Z,2.10
2019-03-20T23:41:37.830Z,2.00
2019-03-20T23:46:35.960Z,1.70
2019-03-20T23:49:12.009Z,2.00
2019-03-20T23:51:41.623Z,1.90
2019-03-20T23:54:11.996Z,1.70
2019-03-20T23:56:41.596Z,1.80
2019-03-20T23:59:11.277Z,1.80
